Time;durP1;ratioP1;P1;durP2;ratioP2;P2;SDS_P1;SDS_P2;PMS_P1;PMS_P2;Temp;Humidity;BMP_temperature;BMP_pressure;BME280_temperature;BME280_humidity;BME280_pressure;Samples;Min_cycle;Max_cycle;Signal;HPM_P1;HPM_P2
2024/03/03 00:04:47;;;;;;;5.88;2.90;;;22.20;54.20;;;;;;10352618;28;20140;-50
2024/03/03 00:09:49;;;;;;;6.90;3.75;;;22.40;53.60;;;;;;10353293;28;21023;-49
2024/03/03 00:14:51;;;;;;;5.05;3.58;;;22.20;53.70;;;;;;10358200;28;20490;-50
2024/03/03 00:19:54;;;;;;;4.45;3.20;;;22.20;53.90;;;;;;10346321;28;20599;-51
2024/03/03 00:24:55;;;;;;;5.03;3.70;;;22.30;53.30;;;;;;10358927;28;20046;-52
2024/03/03 00:29:57;;;;;;;3.85;3.33;;;22.20;53.40;;;;;;10356258;28;20519;-49
2024/03/03 00:35:00;;;;;;;4.65;3.30;;;22.20;53.40;;;;;;10354866;28;20137;-52
2024/03/03 00:40:02;;;;;;;5.25;3.20;;;22.10;53.60;;;;;;10356689;28;20522;-49
2024/03/03 00:45:04;;;;;;;4.50;3.53;;;22.10;53.70;;;;;;10356459;28;20140;-52
2024/03/03 00:50:08;;;;;;;5.05;3.40;;;22.00;53.90;;;;;;10348945;28;20081;-55
2024/03/03 00:55:10;;;;;;;6.10;3.45;;;22.30;53.40;;;;;;10355110;28;20056;-52
2024/03/03 01:00:12;;;;;;;5.47;3.42;;;22.10;53.60;;;;;;10356358;28;20054;-51
2024/03/03 01:05:15;;;;;;;4.57;3.22;;;22.00;53.70;;;;;;10355164;28;20073;-52
2024/03/03 01:10:17;;;;;;;5.18;3.83;;;22.00;53.70;;;;;;10349108;28;20405;-52
2024/03/03 01:15:18;;;;;;;3.60;3.30;;;22.00;53.70;;;;;;10356081;28;20124;-51
2024/03/03 01:20:24;;;;;;;3.83;3.38;;;21.90;54.10;;;;;;10351683;28;20043;-51
2024/03/03 01:25:28;;;;;;;4.00;3.50;;;22.00;53.50;;;;;;10348988;28;20050;-49
2024/03/03 01:30:30;;;;;;;4.55;3.67;;;21.90;53.90;;;;;;10351736;28;20081;-56
2024/03/03 01:35:33;;;;;;;4.47;3.55;;;21.90;53.80;;;;;;10359527;28;20129;-50
2024/03/03 01:40:35;;;;;;;3.60;3.30;;;21.90;54.00;;;;;;10369281;28;20077;-48
2024/03/03 01:45:36;;;;;;;4.03;3.28;;;21.60;54.60;;;;;;10367442;28;20053;-50
2024/03/03 01:50:41;;;;;;;4.50;3.30;;;21.60;54.50;;;;;;10361134;28;20133;-52
2024/03/03 01:55:42;;;;;;;7.78;3.70;;;21.50;54.60;;;;;;10360821;28;20075;-52
2024/03/03 02:00:45;;;;;;;4.50;3.30;;;21.50;54.80;;;;;;10354096;28;20137;-48
2024/03/03 02:05:48;;;;;;;3.53;3.10;;;21.50;54.60;;;;;;10363766;28;20061;-49
2024/03/03 02:10:50;;;;;;;5.15;3.40;;;21.40;55.00;;;;;;10365614;28;20083;-51
2024/03/03 02:15:51;;;;;;;3.65;3.28;;;21.40;54.70;;;;;;10361070;28;20157;-51
2024/03/03 02:20:54;;;;;;;3.55;3.20;;;21.40;54.80;;;;;;10358007;28;20129;-53
2024/03/03 02:25:57;;;;;;;4.35;3.53;;;21.40;54.80;;;;;;10359916;28;20042;-49
2024/03/03 02:30:59;;;;;;;4.07;3.03;;;21.50;54.60;;;;;;10356362;28;20042;-48
2024/03/03 02:36:00;;;;;;;4.25;3.42;;;21.30;55.40;;;;;;10360595;28;20603;-50
2024/03/03 02:41:04;;;;;;;4.03;3.50;;;21.30;54.90;;;;;;10356562;28;20156;-56
2024/03/03 02:46:06;;;;;;;3.90;3.50;;;21.20;54.90;;;;;;10361946;28;20084;-55
2024/03/03 02:51:07;;;;;;;5.40;3.67;;;21.30;54.90;;;;;;10360783;28;20050;-53
2024/03/03 02:56:10;;;;;;;5.55;3.80;;;21.30;55.00;;;;;;10359518;28;20495;-55
2024/03/03 03:01:12;;;;;;;4.57;3.65;;;21.30;54.90;;;;;;10362250;28;20164;-54
2024/03/03 03:06:14;;;;;;;7.32;3.90;;;21.30;54.90;;;;;;10358511;28;20136;-53
2024/03/03 03:11:17;;;;;;;5.85;3.60;;;21.10;55.00;;;;;;10354044;28;20141;-55
2024/03/03 03:16:18;;;;;;;6.10;3.70;;;21.20;55.10;;;;;;10349754;28;20046;-55
2024/03/03 03:21:21;;;;;;;5.28;3.78;;;21.10;55.10;;;;;;10350179;28;20483;-53
2024/03/03 03:26:24;;;;;;;8.90;3.63;;;21.10;55.00;;;;;;10355497;28;20461;-56
2024/03/03 03:31:25;;;;;;;4.60;3.53;;;21.20;54.90;;;;;;10355036;28;20420;-53
2024/03/03 03:36:27;;;;;;;6.47;3.70;;;21.20;54.40;;;;;;10353059;28;20076;-56
2024/03/03 03:41:30;;;;;;;4.88;4.00;;;21.00;55.00;;;;;;10348914;28;20145;-52
2024/03/03 03:46:31;;;;;;;3.90;3.50;;;21.00;54.90;;;;;;10347556;28;20050;-54
2024/03/03 03:51:33;;;;;;;4.55;3.60;;;21.00;55.00;;;;;;10351477;28;20046;-51
2024/03/03 03:56:36;;;;;;;5.95;3.50;;;21.10;54.60;;;;;;10350184;28;20056;-56
2024/03/03 04:01:37;;;;;;;4.20;3.80;;;21.10;54.60;;;;;;10354057;28;20496;-55
2024/03/03 04:06:39;;;;;;;5.13;4.20;;;21.10;55.20;;;;;;10361951;28;20161;-55
2024/03/03 04:11:42;;;;;;;4.90;4.07;;;21.50;54.80;;;;;;10359582;28;20128;-54
2024/03/03 04:16:44;;;;;;;4.50;3.80;;;21.90;54.10;;;;;;10359475;28;20149;-56
2024/03/03 04:21:45;;;;;;;4.60;3.65;;;22.20;53.50;;;;;;10352260;28;20157;-52
2024/03/03 04:26:48;;;;;;;4.10;3.70;;;22.40;52.70;;;;;;10356453;28;20140;-54
2024/03/03 04:31:53;;;;;;;5.93;4.18;;;22.70;52.00;;;;;;10353755;28;20077;-53
2024/03/03 04:36:55;;;;;;;4.82;3.70;;;22.40;52.50;;;;;;10354752;28;20054;-55
2024/03/03 04:41:58;;;;;;;5.95;4.05;;;22.50;52.60;;;;;;10353181;28;20152;-54
2024/03/03 04:46:59;;;;;;;10.10;4.53;;;22.70;51.40;;;;;;10351785;28;20070;-53
2024/03/03 04:52:01;;;;;;;5.90;3.90;;;22.70;51.30;;;;;;10354831;28;20129;-53
2024/03/03 04:57:04;;;;;;;6.25;4.05;;;23.20;50.00;;;;;;10346980;28;20559;-54
2024/03/03 05:02:06;;;;;;;8.85;4.55;;;23.40;49.60;;;;;;10345044;28;20047;-53
2024/03/03 05:07:08;;;;;;;5.03;4.15;;;23.30;49.50;;;;;;10350568;28;20640;-49
2024/03/03 05:12:11;;;;;;;4.50;3.92;;;23.30;49.50;;;;;;10364772;28;20133;-53
2024/03/03 05:17:12;;;;;;;5.75;3.83;;;23.10;50.00;;;;;;10368249;28;20050;-56
2024/03/03 05:22:16;;;;;;;14.02;4.72;;;22.90;50.40;;;;;;10368388;28;20089;-54
2024/03/03 05:27:19;;;;;;;7.50;4.32;;;22.90;50.40;;;;;;10366471;28;20042;-50
2024/03/03 05:32:22;;;;;;;5.53;4.10;;;23.10;50.00;;;;;;10364962;28;20056;-48
2024/03/03 05:37:24;;;;;;;4.38;3.58;;;23.20;49.80;;;;;;10360773;28;20073;-55
2024/03/03 05:42:27;;;;;;;4.90;3.92;;;23.60;48.90;;;;;;10354564;28;20137;-51
2024/03/03 05:47:28;;;;;;;5.45;3.80;;;23.60;48.70;;;;;;10359846;28;20542;-53
2024/03/03 05:52:30;;;;;;;5.40;3.95;;;23.60;48.70;;;;;;10365370;28;20054;-49
2024/03/03 05:57:33;;;;;;;5.25;4.13;;;23.60;48.70;;;;;;10358295;28;20046;-51
2024/03/03 06:02:35;;;;;;;4.82;3.97;;;23.60;49.30;;;;;;10361338;28;20060;-50
2024/03/03 06:07:36;;;;;;;5.97;4.30;;;23.60;49.00;;;;;;10363179;28;20455;-50
2024/03/03 06:12:39;;;;;;;4.30;3.90;;;23.90;48.80;;;;;;10358454;28;20058;-49
2024/03/03 06:17:41;;;;;;;6.68;4.40;;;24.00;48.10;;;;;;10358513;28;20137;-48
2024/03/03 06:22:42;;;;;;;5.60;4.20;;;23.90;48.00;;;;;;10353045;28;20172;-50
2024/03/03 06:27:45;;;;;;;4.97;4.15;;;23.80;48.60;;;;;;10361428;28;20046;-53
2024/03/03 06:32:47;;;;;;;5.28;3.70;;;23.60;48.90;;;;;;10366333;28;20050;-57
2024/03/03 06:37:51;;;;;;;7.32;4.25;;;23.80;48.70;;;;;;10359429;28;20042;-53
2024/03/03 06:42:54;;;;;;;7.70;4.10;;;23.90;48.10;;;;;;10362324;28;20053;-51
2024/03/03 06:47:55;;;;;;;5.72;3.70;;;24.00;50.00;;;;;;10359994;28;20085;-54
2024/03/03 06:52:57;;;;;;;10.20;3.40;;;24.10;49.50;;;;;;10352964;28;20145;-56
2024/03/03 06:58:00;;;;;;;5.65;3.80;;;24.30;48.90;;;;;;10356741;28;20136;-50
2024/03/03 07:03:19;;;;;;;6.60;3.75;;;24.30;48.20;;;;;;10360099;28;20133;-55
2024/03/03 07:08:20;;;;;;;7.03;3.80;;;24.30;47.70;;;;;;10354941;28;20042;-49
2024/03/03 07:13:23;;;;;;;6.68;4.07;;;24.40;47.90;;;;;;10357813;28;20060;-53
2024/03/03 07:18:25;;;;;;;6.72;4.47;;;24.50;47.20;;;;;;10352447;28;20408;-50
2024/03/03 07:23:27;;;;;;;5.55;4.40;;;24.40;47.00;;;;;;10354319;28;20121;-50
2024/03/03 07:28:30;;;;;;;6.28;4.40;;;24.50;46.40;;;;;;10355947;28;20056;-55
2024/03/03 07:33:31;;;;;;;5.78;4.32;;;24.50;46.30;;;;;;10362236;28;20141;-53
2024/03/03 07:38:33;;;;;;;7.88;4.97;;;24.30;46.40;;;;;;10355760;28;20153;-54
2024/03/03 07:43:36;;;;;;;6.10;5.43;;;24.40;46.00;;;;;;10360220;28;20556;-51
2024/03/03 07:48:38;;;;;;;10.88;5.93;;;24.20;45.50;;;;;;10362127;28;20496;-49
2024/03/03 07:53:46;;;;;;;10.50;6.18;;;24.30;45.10;;;;;;10362403;28;20480;-48
2024/03/03 07:58:49;;;;;;;7.22;6.40;;;24.20;45.10;;;;;;10361711;28;20137;-55
2024/03/03 08:03:50;;;;;;;9.43;7.28;;;24.40;44.40;;;;;;10356753;28;20046;-50
2024/03/03 08:08:52;;;;;;;12.15;8.40;;;24.20;43.70;;;;;;10351152;28;20133;-53
2024/03/03 08:14:04;;;;;;;10.38;8.68;;;24.20;43.10;;;;;;10361512;28;20144;-57
2024/03/03 08:19:07;;;;;;;13.38;11.10;;;24.10;42.50;;;;;;10354724;28;20141;-55
2024/03/03 08:24:09;;;;;;;14.70;11.43;;;24.00;41.40;;;;;;10352796;28;20145;-54
2024/03/03 08:29:11;;;;;;;17.10;12.10;;;23.90;41.00;;;;;;10352429;28;20038;-55
2024/03/03 08:34:13;;;;;;;21.50;12.95;;;23.90;40.90;;;;;;10354292;28;20058;-54
2024/03/03 08:39:16;;;;;;;16.35;13.45;;;23.90;41.20;;;;;;10349887;28;20041;-49
2024/03/03 08:44:19;;;;;;;15.02;13.15;;;23.80;40.50;;;;;;10357818;28;20080;-51
2024/03/03 08:49:21;;;;;;;15.65;11.30;;;23.60;40.90;;;;;;10350749;28;20039;-49
2024/03/03 08:54:23;;;;;;;14.32;12.38;;;23.20;42.40;;;;;;10359522;28;20137;-52
2024/03/03 08:59:28;;;;;;;17.02;13.38;;;23.80;41.30;;;;;;10356429;28;20125;-53
2024/03/03 09:04:37;;;;;;;16.10;13.70;;;24.00;40.60;;;;;;10357457;28;20136;-50
2024/03/03 09:09:39;;;;;;;17.45;13.93;;;23.80;40.50;;;;;;10353925;28;20050;-56
2024/03/03 09:14:42;;;;;;;20.85;14.15;;;23.90;40.30;;;;;;10357588;28;20136;-52
2024/03/03 09:19:44;;;;;;;19.65;12.82;;;24.10;39.40;;;;;;10354237;28;20077;-49
2024/03/03 09:24:46;;;;;;;20.63;14.68;;;24.10;40.10;;;;;;10355442;28;20081;-50
2024/03/03 09:29:49;;;;;;;21.35;14.77;;;24.10;39.50;;;;;;10353612;28;21408;-52
2024/03/03 09:34:51;;;;;;;21.67;15.27;;;24.10;39.60;;;;;;10351874;28;20065;-55
2024/03/03 09:39:52;;;;;;;17.27;14.52;;;24.20;39.50;;;;;;10315473;28;20485;-53
2024/03/03 09:44:56;;;;;;;17.52;14.55;;;24.20;39.20;;;;;;10352278;28;20140;-49
2024/03/03 09:49:57;;;;;;;18.52;15.32;;;24.20;38.80;;;;;;10352309;28;20060;-48
2024/03/03 09:54:59;;;;;;;19.52;14.35;;;24.10;39.00;;;;;;10354719;28;20128;-52
2024/03/03 10:00:02;;;;;;;20.92;16.63;;;24.20;39.60;;;;;;10364716;28;20045;-48
2024/03/03 10:05:04;;;;;;;23.98;17.52;;;23.20;40.30;;;;;;10362924;28;20428;-53
2024/03/03 10:10:08;;;;;;;24.92;18.00;;;22.60;41.20;;;;;;10366954;28;20133;-51
2024/03/03 10:15:12;;;;;;;21.30;16.15;;;22.20;41.60;;;;;;10363036;28;20093;-52
2024/03/03 10:20:14;;;;;;;19.35;16.50;;;22.00;42.30;;;;;;10318548;28;20060;-53
2024/03/03 10:25:18;;;;;;;19.77;17.08;;;21.90;42.40;;;;;;10356561;28;20476;-49
2024/03/03 10:30:22;;;;;;;20.98;16.65;;;22.00;42.80;;;;;;10321063;28;20481;-49
2024/03/03 10:35:23;;;;;;;21.08;15.90;;;21.80;42.70;;;;;;10349298;28;20046;-49
2024/03/03 10:40:25;;;;;;;20.80;16.05;;;21.80;42.80;;;;;;10328105;28;20054;-52
2024/03/03 10:45:28;;;;;;;19.73;15.35;;;21.80;43.00;;;;;;10358966;28;20069;-54
2024/03/03 10:50:31;;;;;;;17.83;14.32;;;21.80;42.90;;;;;;10357525;28;20060;-48
2024/03/03 10:55:33;;;;;;;21.30;16.77;;;21.90;42.80;;;;;;10359672;28;20085;-53
2024/03/03 11:00:36;;;;;;;19.08;15.60;;;21.90;42.60;;;;;;10354962;28;20084;-49
2024/03/03 11:05:38;;;;;;;22.25;15.07;;;21.70;42.70;;;;;;10355164;28;20141;-48
2024/03/03 11:10:40;;;;;;;20.67;14.50;;;21.80;42.50;;;;;;10352890;28;20053;-48
2024/03/03 11:15:43;;;;;;;17.67;13.85;;;21.70;42.60;;;;;;10355113;28;20128;-52
2024/03/03 11:20:45;;;;;;;18.95;13.93;;;21.60;42.90;;;;;;10358762;28;20042;-48
2024/03/03 11:25:54;;;;;;;16.20;13.27;;;21.80;42.80;;;;;;10361469;28;20058;-56
2024/03/03 11:30:57;;;;;;;18.08;13.02;;;21.80;43.10;;;;;;10359453;28;20050;-54
2024/03/03 11:35:59;;;;;;;18.98;13.20;;;22.10;42.40;;;;;;10359025;28;20137;-52
2024/03/03 11:41:00;;;;;;;16.70;11.00;;;22.10;42.40;;;;;;10358618;28;20045;-55
2024/03/03 11:46:05;;;;;;;13.32;9.48;;;22.90;40.80;;;;;;10358564;28;20140;-56
2024/03/03 11:51:26;;;;;;;11.80;9.45;;;23.40;40.10;;;;;;10357975;28;20381;-50
2024/03/03 11:56:30;;;;;;;23.80;12.48;;;23.80;39.60;;;;;;10360540;28;20129;-52
2024/03/03 12:01:33;;;;;;;25.50;12.18;;;23.60;40.50;;;;;;10356620;28;20060;-52
2024/03/03 12:06:35;;;;;;;17.00;11.27;;;23.60;41.20;;;;;;10353967;28;20173;-51
2024/03/03 12:11:37;;;;;;;22.63;11.50;;;23.70;41.70;;;;;;10356247;28;20385;-57
2024/03/03 12:16:40;;;;;;;16.23;9.98;;;23.80;42.20;;;;;;10353774;28;20647;-55
2024/03/03 12:21:41;;;;;;;16.05;9.02;;;23.40;43.30;;;;;;10357696;28;20141;-53
2024/03/03 12:26:43;;;;;;;13.98;8.75;;;23.60;43.00;;;;;;10358122;28;20133;-53
2024/03/03 12:31:46;;;;;;;12.85;8.77;;;23.60;43.90;;;;;;10356713;28;20615;-56
2024/03/03 12:36:49;;;;;;;12.70;9.00;;;23.50;44.20;;;;;;10360131;28;20156;-51
2024/03/03 12:41:51;;;;;;;11.90;8.65;;;23.50;44.60;;;;;;10362982;28;20427;-54
2024/03/03 12:46:54;;;;;;;11.70;8.07;;;23.70;44.30;;;;;;10356275;28;20132;-54
2024/03/03 12:51:58;;;;;;;13.35;10.23;;;24.30;42.60;;;;;;10352303;28;20133;-53
2024/03/03 12:57:00;;;;;;;11.00;9.13;;;24.50;39.50;;;;;;10362093;28;20117;-55
2024/03/03 13:02:05;;;;;;;12.00;9.10;;;24.90;39.10;;;;;;10355750;28;20565;-52
2024/03/03 13:07:08;;;;;;;11.48;8.60;;;24.80;39.00;;;;;;10359465;28;20157;-53
2024/03/03 13:12:10;;;;;;;15.85;9.52;;;25.00;39.20;;;;;;10361387;28;20045;-50
2024/03/03 13:17:13;;;;;;;12.32;9.77;;;24.90;39.10;;;;;;10353879;28;20042;-57
2024/03/03 13:22:17;;;;;;;12.75;9.23;;;24.90;38.90;;;;;;10351844;28;20481;-50
2024/03/03 13:27:19;;;;;;;12.05;8.70;;;24.60;39.10;;;;;;10351569;28;20046;-54
2024/03/03 13:32:22;;;;;;;10.82;9.13;;;24.70;39.00;;;;;;10362089;28;20134;-52
2024/03/03 13:37:24;;;;;;;12.68;8.75;;;24.90;39.20;;;;;;10361354;28;20068;-54
2024/03/03 13:42:26;;;;;;;10.23;9.15;;;24.70;39.30;;;;;;10362343;28;20137;-54
2024/03/03 13:47:29;;;;;;;10.30;8.93;;;24.70;39.40;;;;;;10361803;28;20052;-52
2024/03/03 13:52:30;;;;;;;13.43;8.75;;;24.60;39.70;;;;;;10363090;28;20065;-56
2024/03/03 13:57:32;;;;;;;9.63;8.30;;;24.60;39.90;;;;;;10375140;28;20186;-52
2024/03/03 14:02:35;;;;;;;12.32;8.60;;;24.60;40.00;;;;;;10368503;28;20626;-49
2024/03/03 14:07:37;;;;;;;9.93;8.65;;;24.60;39.90;;;;;;10357308;28;20051;-50
2024/03/03 14:12:38;;;;;;;11.48;8.77;;;24.70;40.00;;;;;;10350410;28;20097;-52
2024/03/03 14:17:49;;;;;;;11.50;8.68;;;24.70;40.10;;;;;;10357797;28;20128;-55
2024/03/03 14:22:56;;;;;;;10.63;8.93;;;24.60;40.00;;;;;;10353285;28;20050;-53
2024/03/03 14:27:58;;;;;;;13.18;9.02;;;24.60;40.90;;;;;;10358664;28;20133;-52
2024/03/03 14:33:01;;;;;;;10.52;9.30;;;24.60;40.00;;;;;;10362599;28;20046;-50
2024/03/03 14:38:02;;;;;;;11.95;9.43;;;24.30;40.40;;;;;;10358322;28;20125;-51
2024/03/03 14:43:04;;;;;;;12.50;10.75;;;24.10;41.60;;;;;;10351551;28;20130;-49
2024/03/03 14:48:07;;;;;;;11.57;10.07;;;23.50;41.50;;;;;;10359877;28;20141;-54
2024/03/03 14:53:09;;;;;;;11.10;10.00;;;23.50;41.90;;;;;;10357846;28;20042;-54
2024/03/03 14:58:11;;;;;;;11.73;10.40;;;23.40;42.10;;;;;;10361620;28;20050;-55
2024/03/03 15:03:14;;;;;;;12.23;10.68;;;23.30;42.40;;;;;;10361914;28;20100;-56
2024/03/03 15:08:16;;;;;;;14.40;10.75;;;23.40;42.20;;;;;;10357775;28;20782;-52
2024/03/03 15:13:20;;;;;;;13.65;10.68;;;23.30;42.10;;;;;;10356924;28;20141;-54
2024/03/03 15:18:23;;;;;;;14.15;11.40;;;23.10;42.90;;;;;;10353323;28;20134;-56
2024/03/03 15:23:25;;;;;;;14.55;11.07;;;23.00;42.80;;;;;;10357127;28;20049;-56
2024/03/03 15:28:27;;;;;;;14.13;11.07;;;23.10;42.90;;;;;;10355155;28;20050;-55
2024/03/03 15:33:30;;;;;;;15.10;11.35;;;23.10;43.00;;;;;;10356260;28;20037;-53
2024/03/03 15:38:31;;;;;;;14.68;11.55;;;23.10;43.10;;;;;;10345931;28;20557;-56
2024/03/03 15:43:33;;;;;;;15.52;11.55;;;23.00;43.50;;;;;;10345439;28;20073;-55
2024/03/03 15:48:36;;;;;;;15.82;11.85;;;23.00;43.50;;;;;;10353448;28;20046;-54
2024/03/03 15:53:38;;;;;;;13.48;10.95;;;23.20;43.20;;;;;;10349284;28;20473;-55
2024/03/03 15:58:39;;;;;;;16.38;11.32;;;23.70;42.50;;;;;;10351093;28;20064;-55
2024/03/03 16:03:42;;;;;;;15.05;11.77;;;23.50;43.00;;;;;;10363365;28;20152;-54
2024/03/03 16:08:44;;;;;;;15.68;11.45;;;23.50;43.50;;;;;;10353456;28;20136;-53
2024/03/03 16:13:45;;;;;;;15.77;11.95;;;23.30;43.90;;;;;;10345204;28;20132;-56
2024/03/03 16:18:48;;;;;;;15.55;11.73;;;23.20;44.00;;;;;;10354499;28;20607;-56
2024/03/03 16:23:50;;;;;;;14.38;11.48;;;23.20;44.10;;;;;;10355485;28;20641;-56
2024/03/03 16:28:54;;;;;;;16.70;12.05;;;23.20;44.10;;;;;;10355231;28;20048;-55
2024/03/03 16:33:57;;;;;;;17.52;12.48;;;23.20;44.20;;;;;;10351909;28;20133;-56
2024/03/03 16:39:02;;;;;;;17.10;12.50;;;23.20;44.60;;;;;;10349579;28;20084;-55
2024/03/03 16:44:04;;;;;;;17.73;12.38;;;23.10;44.50;;;;;;10346786;28;20050;-56
2024/03/03 16:49:07;;;;;;;17.40;13.52;;;23.10;44.40;;;;;;10344499;28;20141;-56
2024/03/03 16:54:09;;;;;;;17.60;13.98;;;23.20;44.30;;;;;;10347981;28;20410;-55
2024/03/03 16:59:11;;;;;;;20.50;14.40;;;23.10;44.50;;;;;;10352228;28;20156;-55
2024/03/03 17:04:16;;;;;;;20.55;14.50;;;23.00;44.70;;;;;;10360819;28;20144;-54
2024/03/03 17:09:18;;;;;;;18.52;14.85;;;22.90;44.90;;;;;;10371337;28;20480;-54
2024/03/03 17:14:19;;;;;;;21.20;15.80;;;23.10;44.70;;;;;;10360406;28;20157;-55
2024/03/03 17:19:22;;;;;;;21.70;16.52;;;23.10;44.70;;;;;;10368044;28;20134;-51
2024/03/03 17:24:24;;;;;;;24.50;16.65;;;23.10;44.70;;;;;;10365024;28;20065;-55
2024/03/03 17:29:26;;;;;;;23.10;17.83;;;22.90;44.90;;;;;;10365567;28;20057;-53
2024/03/03 17:34:32;;;;;;;28.50;20.25;;;23.00;44.90;;;;;;10365812;28;20054;-52
2024/03/03 17:39:33;;;;;;;25.48;19.58;;;23.00;44.90;;;;;;10357425;28;20069;-56
2024/03/03 17:44:35;;;;;;;27.77;18.83;;;23.00;44.90;;;;;;10355960;28;20125;-56
2024/03/03 17:49:38;;;;;;;26.08;17.92;;;23.20;44.60;;;;;;10358431;28;20176;-53
2024/03/03 17:54:42;;;;;;;33.13;17.88;;;23.50;43.90;;;;;;10360489;28;20072;-54
2024/03/03 17:59:44;;;;;;;33.10;19.60;;;23.50;44.00;;;;;;10356955;28;20473;-55
2024/03/03 18:04:47;;;;;;;30.52;17.67;;;23.20;44.10;;;;;;10362259;28;20180;-57
2024/03/03 18:09:49;;;;;;;32.67;16.20;;;23.60;44.10;;;;;;10360026;28;20120;-51
2024/03/03 18:14:52;;;;;;;19.80;14.00;;;23.50;46.00;;;;;;10360017;28;20700;-50
2024/03/03 18:19:55;;;;;;;25.63;14.40;;;23.40;47.30;;;;;;10359551;28;20050;-52
2024/03/03 18:24:57;;;;;;;17.80;13.15;;;23.60;46.80;;;;;;10359293;28;20057;-50
2024/03/03 18:29:59;;;;;;;17.95;13.40;;;23.70;46.70;;;;;;10352915;28;20042;-50
2024/03/03 18:35:02;;;;;;;19.00;12.85;;;23.60;47.30;;;;;;10362448;28;20603;-50
2024/03/03 18:40:05;;;;;;;26.20;13.32;;;23.70;47.60;;;;;;10361223;28;20508;-51
2024/03/03 18:45:07;;;;;;;21.83;12.70;;;24.00;48.00;;;;;;10359373;28;20136;-50
2024/03/03 18:50:19;;;;;;;18.48;13.00;;;23.90;48.20;;;;;;10353603;28;20563;-46
2024/03/03 18:55:23;;;;;;;17.52;12.18;;;23.90;48.30;;;;;;10358412;28;20050;-48
2024/03/03 19:00:24;;;;;;;19.80;11.85;;;24.00;48.50;;;;;;10352346;28;20070;-50
2024/03/03 19:05:28;;;;;;;16.63;11.80;;;24.00;48.90;;;;;;10358537;28;20056;-49
2024/03/03 19:10:30;;;;;;;17.70;11.32;;;24.30;48.70;;;;;;10358014;28;20049;-50
2024/03/03 19:15:33;;;;;;;18.83;11.95;;;24.20;48.50;;;;;;10358262;28;20054;-49
2024/03/03 19:20:36;;;;;;;23.33;11.05;;;24.00;48.50;;;;;;10362800;28;20046;-49
2024/03/03 19:25:37;;;;;;;16.85;11.48;;;24.00;48.40;;;;;;10359414;28;20056;-50
2024/03/03 19:30:39;;;;;;;19.85;11.20;;;23.90;48.50;;;;;;10355726;28;20084;-50
2024/03/03 19:35:45;;;;;;;17.20;10.65;;;23.80;48.40;;;;;;10353373;28;20596;-48
2024/03/03 19:40:47;;;;;;;16.55;10.55;;;23.80;48.40;;;;;;10359337;28;20081;-45
2024/03/03 19:45:49;;;;;;;15.00;10.70;;;23.70;48.30;;;;;;10359941;28;20069;-48
2024/03/03 19:50:52;;;;;;;15.80;9.80;;;23.60;48.30;;;;;;10359783;28;20042;-49
2024/03/03 19:55:53;;;;;;;14.45;10.10;;;23.60;48.30;;;;;;10354537;28;20049;-45
2024/03/03 20:00:55;;;;;;;14.02;9.45;;;23.70;48.10;;;;;;10352258;28;20052;-51
2024/03/03 20:05:58;;;;;;;15.77;9.60;;;23.90;47.70;;;;;;10351632;28;20566;-45
2024/03/03 20:11:00;;;;;;;12.93;9.52;;;23.80;48.00;;;;;;10354236;28;20069;-45
2024/03/03 20:16:02;;;;;;;11.68;8.80;;;23.60;48.10;;;;;;10355113;28;20060;-49
2024/03/03 20:21:05;;;;;;;12.80;9.25;;;23.60;48.10;;;;;;10360052;28;20111;-46
2024/03/03 20:26:07;;;;;;;12.30;8.80;;;23.60;48.10;;;;;;10357367;28;20140;-46
2024/03/03 20:31:09;;;;;;;15.55;9.27;;;23.60;47.90;;;;;;10357006;28;20049;-45
2024/03/03 20:36:13;;;;;;;18.13;8.65;;;23.60;47.90;;;;;;10351838;28;20077;-46
2024/03/03 20:41:14;;;;;;;13.73;9.88;;;23.60;47.80;;;;;;10354884;28;20126;-46
2024/03/03 20:46:16;;;;;;;13.85;9.55;;;23.40;48.40;;;;;;10352928;28;20117;-49
2024/03/03 20:51:19;;;;;;;12.93;9.10;;;23.30;47.90;;;;;;10354100;28;20061;-45
2024/03/03 20:56:21;;;;;;;17.55;9.40;;;23.20;48.10;;;;;;10354114;28;20042;-45
2024/03/03 21:01:22;;;;;;;11.02;8.48;;;23.20;48.10;;;;;;10359525;28;20532;-45
2024/03/03 21:06:25;;;;;;;10.25;9.00;;;23.20;48.70;;;;;;10359818;28;20149;-45
2024/03/03 21:11:27;;;;;;;14.88;8.98;;;23.20;48.30;;;;;;10358076;28;20152;-45
2024/03/03 21:16:28;;;;;;;11.02;8.43;;;23.40;48.00;;;;;;10352273;28;20073;-46
2024/03/03 21:21:31;;;;;;;11.60;8.82;;;23.20;48.10;;;;;;10347478;28;20496;-49
2024/03/03 21:26:33;;;;;;;10.52;8.30;;;23.30;48.40;;;;;;10349096;28;20042;-47
2024/03/03 21:31:35;;;;;;;13.40;8.65;;;23.20;48.50;;;;;;10355795;28;20125;-48
2024/03/03 21:36:38;;;;;;;12.73;8.18;;;23.20;48.70;;;;;;10354568;28;20045;-46
2024/03/03 21:41:40;;;;;;;14.70;8.43;;;23.10;49.20;;;;;;10358348;28;20073;-50
2024/03/03 21:46:41;;;;;;;10.52;8.18;;;23.10;49.20;;;;;;10354783;28;20133;-45
2024/03/03 21:51:44;;;;;;;12.40;8.02;;;23.00;50.00;;;;;;10359164;28;20524;-47
2024/03/03 21:56:46;;;;;;;14.35;8.13;;;23.00;49.70;;;;;;10356680;28;20589;-45
2024/03/03 22:01:48;;;;;;;10.05;7.65;;;22.90;49.80;;;;;;10360028;28;20091;-49
2024/03/03 22:06:51;;;;;;;12.23;7.55;;;22.90;49.70;;;;;;10366603;28;20053;-45
2024/03/03 22:11:52;;;;;;;10.90;8.07;;;22.80;50.50;;;;;;10363690;28;20052;-45
2024/03/03 22:16:54;;;;;;;9.88;7.90;;;22.80;50.10;;;;;;10365171;28;20042;-46
2024/03/03 22:21:57;;;;;;;9.98;8.10;;;22.70;50.00;;;;;;10363636;28;20053;-45
2024/03/03 22:26:59;;;;;;;10.13;7.28;;;22.70;49.90;;;;;;10358941;28;20469;-45
2024/03/03 22:32:00;;;;;;;8.30;7.43;;;22.60;50.10;;;;;;10358295;28;20046;-46
2024/03/03 22:37:05;;;;;;;8.77;7.32;;;22.60;50.00;;;;;;10359325;28;20560;-45
2024/03/03 22:42:07;;;;;;;9.43;8.05;;;22.60;49.80;;;;;;10358080;28;20051;-48
2024/03/03 22:47:08;;;;;;;8.30;7.40;;;22.50;49.90;;;;;;10357261;28;20042;-47
2024/03/03 22:52:11;;;;;;;9.43;7.05;;;22.50;50.00;;;;;;10362268;28;20587;-47
2024/03/03 22:57:13;;;;;;;9.50;7.20;;;22.50;49.90;;;;;;10357319;28;20165;-45
2024/03/03 23:02:15;;;;;;;7.97;7.18;;;22.60;49.80;;;;;;10354342;28;20128;-52
2024/03/03 23:07:18;;;;;;;8.00;7.13;;;22.70;49.40;;;;;;10355022;28;20112;-47
2024/03/03 23:12:19;;;;;;;7.88;7.05;;;22.80;49.30;;;;;;10357287;28;20133;-48
2024/03/03 23:17:21;;;;;;;8.68;7.20;;;22.80;49.20;;;;;;10365964;28;20129;-48
2024/03/03 23:22:24;;;;;;;8.38;7.53;;;22.90;48.80;;;;;;10359613;28;20456;-46
2024/03/03 23:27:25;;;;;;;9.23;7.22;;;22.80;48.80;;;;;;10361711;28;20133;-49
2024/03/03 23:32:27;;;;;;;8.73;7.10;;;22.80;49.20;;;;;;10361425;28;20046;-45
2024/03/03 23:37:30;;;;;;;7.97;7.15;;;22.60;49.40;;;;;;10357816;28;20072;-48
2024/03/03 23:42:31;;;;;;;8.35;7.22;;;22.60;49.40;;;;;;10360940;28;20042;-46
2024/03/03 23:47:33;;;;;;;8.07;7.15;;;22.50;49.60;;;;;;10357473;28;20142;-45
2024/03/03 23:52:36;;;;;;;7.57;6.78;;;22.70;49.30;;;;;;10350786;28;20584;-46
2024/03/03 23:57:38;;;;;;;9.70;7.15;;;22.80;49.00;;;;;;10346803;28;20132;-46
